»·PEaware :: N3891R KSBA-KSBP

N3891R :: KSBA-KSBP

FLIGHT INFORMATION

Flight Status: Arrived
Operator: Privately registered:
United States
More flights under this callsign
Pilot: Markus B. (22479)
Aircraft: BEECH AIRCRAFT BARON
(BE58)
More flights by this aircraft type
Origin: KSBA Santa Barbara Mun
United States
Destination: KSBP San Luis Co Regl
United States
More flights between these airports :: More routes between these airports
Route: +GVO V27 MQO
File this flight plan on PilotEdge
Remarks:
Altitude:
(Current/Filed)
10,000ft
Speed:
(Current/Filed)
170kts
Departed: 23-Jun-19 11:05 AM
Arrived: 23-Jun-19 12:46 PM
Distance/Time
Traveled:
63nm/1:40
Distance/Time
To Go:
Arrived

Flight Plot

Page will automatically refresh every two minutes.


Map Options




Map Legend


Flown Route
Filed Route
Departure Airport
Arrival Airport
Navaid (VOR, NDB)
Fix

Horizontal Profiles

Position Reports

Time Latitude Longitude Heading Altitude Ground
Speed
23-Jun-19 10:47 34.432348 -119.835682 125 17ft 0kts
23-Jun-19 10:48 34.432348 -119.835682 125 17ft 0kts
23-Jun-19 10:49 34.432348 -119.835682 125 17ft 0kts
23-Jun-19 10:50 34.432348 -119.835682 125 17ft 0kts
23-Jun-19 10:51 34.432348 -119.835682 125 17ft 0kts
23-Jun-19 10:52 34.432348 -119.835682 125 17ft 0kts
23-Jun-19 10:53 34.432348 -119.835682 125 17ft 0kts
23-Jun-19 10:54 34.432348 -119.835682 125 17ft 0kts
23-Jun-19 10:55 34.432348 -119.835682 125 17ft 0kts
23-Jun-19 10:56 34.432348 -119.835682 125 17ft 0kts
23-Jun-19 10:57 34.432348 -119.835682 125 17ft 0kts
23-Jun-19 10:58 34.432348 -119.835682 125 17ft 0kts
23-Jun-19 10:59 34.432348 -119.835682 125 17ft 0kts
23-Jun-19 11:00 34.432348 -119.835682 125 17ft 0kts
23-Jun-19 11:01 34.431190 -119.838230 251 17ft 15kts
23-Jun-19 11:02 34.430723 -119.839734 244 17ft 0kts
23-Jun-19 11:03 34.430116 -119.840139 163 17ft 25kts
23-Jun-19 11:04 34.407603 -119.829785 152 1568ft 92kts
23-Jun-19 11:05 34.394400 -119.826307 286 2293ft 84kts
23-Jun-19 11:06 34.382381 -119.851643 218 3672ft 119kts
23-Jun-19 11:07 34.352214 -119.883884 199 4052ft 176kts
23-Jun-19 11:08 34.315840 -119.881145 178 5934ft 76kts
23-Jun-19 11:09 34.288444 -119.891456 241 6396ft 150kts
23-Jun-19 11:10 34.275582 -119.937369 279 7390ft 146kts
23-Jun-19 11:11 34.292574 -119.976881 326 8084ft 159kts
23-Jun-19 11:12 34.327883 -120.015271 307 7983ft 179kts
23-Jun-19 11:13 34.366671 -120.053565 325 7986ft 180kts
23-Jun-19 11:14 34.408696 -120.086686 327 7985ft 180kts
23-Jun-19 11:15 34.451004 -120.119350 327 7985ft 180kts
23-Jun-19 11:16 34.493324 -120.152258 326 7985ft 180kts
23-Jun-19 11:17 34.535165 -120.185884 327 7985ft 180kts
23-Jun-19 11:18 34.577264 -120.219284 327 8028ft 177kts
23-Jun-19 11:19 34.618907 -120.252305 327 8059ft 179kts
23-Jun-19 11:20 34.660888 -120.285626 327 8059ft 180kts
23-Jun-19 11:21 34.702890 -120.319012 327 8059ft 180kts
23-Jun-19 11:22 34.744948 -120.352469 327 8059ft 180kts
23-Jun-19 11:23 34.791038 -120.375902 341 7999ft 184kts
23-Jun-19 11:24 34.841605 -120.396774 341 7291ft 192kts
23-Jun-19 11:25 34.893820 -120.418439 341 5962ft 200kts
23-Jun-19 11:26 34.946634 -120.440414 341 4681ft 200kts
23-Jun-19 11:27 34.997775 -120.461756 341 4022ft 179kts
23-Jun-19 11:28 35.043425 -120.480825 341 4025ft 164kts
23-Jun-19 11:29 35.084940 -120.498198 341 3881ft 160kts
23-Jun-19 11:30 35.126381 -120.515532 341 3801ft 152kts
23-Jun-19 11:31 35.158417 -120.542958 288 3803ft 149kts
23-Jun-19 11:32 35.198526 -120.564751 286 2377ft 177kts
23-Jun-19 11:43 34.427911 -119.834849 268 17ft 0kts
23-Jun-19 11:44 34.427911 -119.834849 268 17ft 0kts
23-Jun-19 11:45 34.427911 -119.834849 268 17ft 0kts
23-Jun-19 11:46 34.431268 -119.835325 359 17ft 20kts
23-Jun-19 11:47 34.432452 -119.835995 160 17ft 0kts
23-Jun-19 11:48 34.432452 -119.835995 160 17ft 0kts
23-Jun-19 11:49 34.432452 -119.835995 160 17ft 0kts
23-Jun-19 11:50 34.432452 -119.835995 160 17ft 0kts
23-Jun-19 11:51 34.432452 -119.835995 160 17ft 0kts
23-Jun-19 11:52 34.432452 -119.835995 160 17ft 0kts
23-Jun-19 11:53 34.432449 -119.835994 161 17ft 0kts
23-Jun-19 11:54 34.432449 -119.835994 161 17ft 0kts
23-Jun-19 11:55 34.432449 -119.835994 161 17ft 0kts
23-Jun-19 11:56 34.432449 -119.835994 161 17ft 0kts
23-Jun-19 11:57 34.432449 -119.835994 161 17ft 0kts
23-Jun-19 11:58 34.432449 -119.835994 161 17ft 0kts
23-Jun-19 11:59 34.432449 -119.835994 161 17ft 0kts
23-Jun-19 12:00 34.432449 -119.835994 161 17ft 0kts
23-Jun-19 12:01 34.432449 -119.835994 161 17ft 0kts
23-Jun-19 12:02 34.432449 -119.835994 161 17ft 0kts
23-Jun-19 12:03 34.432449 -119.835994 161 17ft 0kts
23-Jun-19 12:04 34.432449 -119.835994 161 17ft 0kts
23-Jun-19 12:05 34.431840 -119.836225 226 17ft 14kts
23-Jun-19 12:06 34.430718 -119.839713 248 17ft 0kts
23-Jun-19 12:07 34.430718 -119.839713 248 17ft 0kts
23-Jun-19 12:08 34.429852 -119.840068 168 17ft 22kts
23-Jun-19 12:09 34.413315 -119.846486 331 1162ft 128kts
23-Jun-19 12:10 34.434784 -119.888718 267 2002ft 161kts
23-Jun-19 12:11 34.428948 -119.942465 262 2916ft 166kts
23-Jun-19 12:12 34.422037 -120.002544 262 2915ft 185kts
23-Jun-19 12:13 34.415023 -120.063499 262 3403ft 164kts
23-Jun-19 12:15 34.420696 -120.110413 326 4633ft 149kts
23-Jun-19 12:16 34.458889 -120.112910 16 5712ft 148kts
23-Jun-19 12:17 34.498172 -120.100226 15 6858ft 140kts
23-Jun-19 12:18 34.535447 -120.098411 337 7953ft 140kts
23-Jun-19 12:19 34.573380 -120.129480 323 7896ft 176kts
23-Jun-19 12:20 34.613143 -120.165982 323 7894ft 180kts
23-Jun-19 12:21 34.653251 -120.202870 323 7893ft 180kts
23-Jun-19 12:22 34.693219 -120.239676 323 7893ft 180kts
23-Jun-19 12:23 34.733208 -120.276546 323 7893ft 180kts
23-Jun-19 12:24 34.773161 -120.313266 323 7893ft 180kts
23-Jun-19 12:25 34.813226 -120.350274 323 7893ft 180kts
23-Jun-19 12:26 34.853425 -120.387675 322 7646ft 192kts
23-Jun-19 12:27 34.898383 -120.429421 323 6497ft 207kts
23-Jun-19 12:28 34.944321 -120.471960 323 5401ft 207kts
23-Jun-19 12:29 34.988706 -120.513230 323 4306ft 187kts
23-Jun-19 12:30 35.028921 -120.550675 323 3943ft 183kts
23-Jun-19 12:31 35.069821 -120.588771 323 3941ft 185kts
23-Jun-19 12:32 35.098600 -120.562613 88 3944ft 185kts
23-Jun-19 12:32 35.105963 -120.510950 76 3941ft 185kts
23-Jun-19 12:34 35.119214 -120.438827 91 3934ft 186kts
23-Jun-19 12:35 35.085442 -120.392940 138 3941ft 185kts
23-Jun-19 12:36 35.043757 -120.362180 204 3944ft 184kts
23-Jun-19 12:36 35.047610 -120.397822 355 3939ft 149kts
23-Jun-19 12:37 35.084298 -120.402699 325 3937ft 126kts
23-Jun-19 12:39 35.112980 -120.433086 319 3948ft 113kts
23-Jun-19 12:39 35.130731 -120.458691 305 3773ft 129kts
23-Jun-19 12:40 35.152305 -120.496725 305 3020ft 135kts
23-Jun-19 12:41 35.174860 -120.532831 312 2455ft 134kts
23-Jun-19 12:42 35.196077 -120.568601 305 1760ft 122kts
23-Jun-19 12:43 35.213481 -120.599128 305 1027ft 101kts
23-Jun-19 12:44 35.228490 -120.625436 304 402ft 90kts
23-Jun-19 12:45 35.237629 -120.639905 0 216ft 3kts

Navigation Log

Ident Type
Flight plan parsing failed, navigation log unavailable